KRKW/RKW METAR and TAF weather

Enter ICAO airport designator
Station Type Date Time Source
KRKW METAR 2020/07/06 20:55 UTC NOAA

KRKW 062055Z AUTO VRB04KT 10SM CLR 31/18 A3002 RMK A01


Station Type Date Time Source
KRKW Decoded METAR 2020/07/06 20:55 UTC NOAA

Station name not available
Jul 06, 2020 - 04:55 PM EDT / 2020.07.06 2055 UTC
Wind: Variable at 5 MPH (4 KT):0
Visibility: 10 mile(s):0
Sky conditions: clear
Temperature: 87 F (31 C)
Dew Point: 64 F (18 C)
Relative Humidity: 45%
Pressure (altimeter): 30.02 in. Hg (1016 hPa)
ob: KRKW 062055Z AUTO VRB04KT 10SM CLR 31/18 A3002 RMK A01
cycle: 21

Station Type Date Time Source
KRKW TAF 2009/08/31 19:50 UTC NOAA

METAR KRKW 311950Z AUTO VRB05KT 10SM CLR 25/13 A3010
RMK AO1 T02500133 $

Example: see airport list